Time;durP1;ratioP1;P1;durP2;ratioP2;P2;SDS_P1;SDS_P2;PMS_P1;PMS_P2;Temp;Humidity;BMP_temperature;BMP_pressure;BME280_temperature;BME280_humidity;BME280_pressure;Samples;Min_cycle;Max_cycle;Signal;HPM_P1;HPM_P2
2022/05/30 00:01:10;;;;;;;3.77;2.73;;;8.90;99.90;;;;;;5011650;28;20183;-56
2022/05/30 00:03:37;;;;;;;3.17;2.95;;;9.10;99.90;;;;;;5011566;28;20213;-57
2022/05/30 00:06:07;;;;;;;3.20;3.00;;;9.10;99.90;;;;;;5009774;28;20191;-56
2022/05/30 00:08:33;;;;;;;3.17;2.70;;;9.20;99.90;;;;;;5020105;28;20203;-57
2022/05/30 00:11:03;;;;;;;6.07;3.00;;;8.90;99.90;;;;;;5010219;28;20233;-57
2022/05/30 00:13:28;;;;;;;2.33;2.13;;;8.90;99.90;;;;;;5011806;28;20237;-57
2022/05/30 00:15:54;;;;;;;3.03;2.50;;;9.00;99.90;;;;;;5011789;28;20187;-56
2022/05/30 00:18:20;;;;;;;3.30;3.07;;;8.80;99.90;;;;;;5011311;28;20215;-57
2022/05/30 00:20:46;;;;;;;2.97;2.60;;;8.90;99.90;;;;;;5012399;28;20198;-57
2022/05/30 00:23:12;;;;;;;3.00;2.80;;;8.70;99.90;;;;;;5012523;28;20182;-57
2022/05/30 00:25:40;;;;;;;2.87;2.67;;;8.90;99.90;;;;;;5011179;28;20191;-58
2022/05/30 00:28:05;;;;;;;2.60;2.40;;;8.70;99.90;;;;;;5010788;28;20450;-57
2022/05/30 00:30:31;;;;;;;3.07;2.83;;;8.60;99.90;;;;;;5011884;28;20290;-56
2022/05/30 00:32:57;;;;;;;3.00;2.70;;;8.70;99.90;;;;;;5012028;28;20575;-58
2022/05/30 00:35:22;;;;;;;2.90;2.70;;;8.50;99.90;;;;;;5012074;28;20215;-57
2022/05/30 00:37:48;;;;;;;2.97;2.77;;;8.30;99.90;;;;;;5010048;28;20190;-57
2022/05/30 00:40:14;;;;;;;3.30;3.10;;;8.50;99.90;;;;;;5010475;28;20217;-54
2022/05/30 00:42:39;;;;;;;3.10;2.78;;;8.30;99.90;;;;;;5011057;28;20198;-58
2022/05/30 00:45:06;;;;;;;3.30;2.70;;;8.50;99.90;;;;;;5012201;28;20183;-57
2022/05/30 00:47:31;;;;;;;7.53;3.15;;;8.50;99.90;;;;;;5011050;28;20198;-57
2022/05/30 00:49:57;;;;;;;3.20;3.00;;;8.50;99.90;;;;;;5007928;28;20202;-56
2022/05/30 00:52:33;;;;;;;3.10;2.80;;;8.40;99.90;;;;;;5012466;28;20254;-56
2022/05/30 00:55:06;;;;;;;4.15;2.55;;;8.60;99.90;;;;;;5011323;28;20195;-57
2022/05/30 00:57:33;;;;;;;3.20;3.00;;;8.50;99.90;;;;;;5011452;28;20202;-57
2022/05/30 01:00:07;;;;;;;3.88;2.63;;;8.20;99.90;;;;;;5009348;28;20217;-57
2022/05/30 01:02:35;;;;;;;3.08;2.88;;;8.40;99.90;;;;;;5011754;28;20270;-56
2022/05/30 01:07:47;;;;;;;2.97;2.78;;;8.50;99.90;;;;;;5010543;28;20214;-57
2022/05/30 01:10:16;;;;;;;3.15;2.67;;;7.90;99.90;;;;;;5010893;28;20789;-57
2022/05/30 01:12:49;;;;;;;3.13;2.83;;;8.30;99.90;;;;;;5011209;28;20266;-57
2022/05/30 01:15:15;;;;;;;3.42;2.55;;;8.70;99.90;;;;;;5010615;28;20917;-57
2022/05/30 01:17:58;;;;;;;2.60;2.35;;;8.30;99.90;;;;;;5010314;28;20274;-57
2022/05/30 01:20:39;;;;;;;3.50;2.65;;;8.20;99.90;;;;;;5009839;28;20633;-58
2022/05/30 01:23:25;;;;;;;2.92;2.72;;;8.20;99.90;;;;;;5010379;28;20265;-58
2022/05/30 01:26:23;;;;;;;2.92;2.72;;;8.40;99.90;;;;;;5009234;28;20187;-58
2022/05/30 01:29:03;;;;;;;3.85;2.78;;;8.30;99.90;;;;;;5011718;28;20273;-55
2022/05/30 01:31:30;;;;;;;2.90;2.60;;;8.00;99.90;;;;;;5007648;28;20202;-58
2022/05/30 01:33:56;;;;;;;3.80;3.08;;;8.20;99.90;;;;;;5009857;28;20556;-57
2022/05/30 01:36:27;;;;;;;3.10;2.80;;;8.00;99.90;;;;;;5010829;28;20179;-58
2022/05/30 01:38:52;;;;;;;3.60;2.67;;;8.60;99.90;;;;;;5010314;28;20210;-57
2022/05/30 01:41:18;;;;;;;2.70;2.50;;;8.10;99.90;;;;;;5010712;28;20191;-58
2022/05/30 01:43:45;;;;;;;3.20;2.90;;;8.20;99.90;;;;;;5009908;28;20290;-57
2022/05/30 01:46:16;;;;;;;2.80;2.60;;;8.00;99.90;;;;;;5010318;28;20221;-57
2022/05/30 01:48:43;;;;;;;5.00;3.00;;;8.00;99.90;;;;;;5004991;28;20214;-61
2022/05/30 01:51:08;;;;;;;2.85;2.65;;;8.10;99.90;;;;;;5011372;28;20245;-57
2022/05/30 01:53:34;;;;;;;2.87;2.67;;;7.80;99.90;;;;;;5010479;28;20207;-58
2022/05/30 01:56:00;;;;;;;3.00;2.80;;;8.00;99.90;;;;;;5009443;28;20600;-58
2022/05/30 01:58:25;;;;;;;2.60;2.40;;;8.20;99.90;;;;;;5010004;28;20225;-57
2022/05/30 02:00:51;;;;;;;3.00;2.50;;;7.70;99.90;;;;;;5003822;28;20178;-57
2022/05/30 02:03:17;;;;;;;4.80;2.97;;;8.00;99.90;;;;;;5010836;28;20202;-57
2022/05/30 02:05:42;;;;;;;2.90;2.60;;;7.40;99.90;;;;;;5010699;28;20187;-58
2022/05/30 02:08:08;;;;;;;3.67;3.40;;;8.00;99.90;;;;;;5010733;28;20290;-57
2022/05/30 02:10:35;;;;;;;3.40;3.10;;;7.80;99.90;;;;;;5010247;28;20203;-57
2022/05/30 02:13:02;;;;;;;3.60;3.30;;;7.90;99.90;;;;;;5010827;28;20445;-57
2022/05/30 02:15:28;;;;;;;3.00;2.80;;;8.30;99.90;;;;;;5003955;28;20179;-56
2022/05/30 02:17:54;;;;;;;3.90;3.10;;;7.70;99.90;;;;;;5009678;28;20257;-58
2022/05/30 02:20:20;;;;;;;4.90;3.15;;;7.70;99.90;;;;;;5010202;28;20182;-56
2022/05/30 02:22:45;;;;;;;3.43;3.13;;;7.60;99.90;;;;;;5010521;28;20654;-56
2022/05/30 02:25:12;;;;;;;3.53;3.23;;;7.40;99.90;;;;;;5009446;28;20182;-56
2022/05/30 02:27:41;;;;;;;3.25;3.03;;;7.80;99.90;;;;;;5008424;28;20463;-57
2022/05/30 02:30:08;;;;;;;4.65;3.42;;;7.70;99.90;;;;;;5010324;28;20207;-58
2022/05/30 02:32:33;;;;;;;3.53;3.22;;;7.70;99.90;;;;;;5010183;28;20183;-57
2022/05/30 02:37:43;;;;;;;3.88;3.45;;;7.60;99.90;;;;;;5005607;28;20241;-56
2022/05/30 02:40:09;;;;;;;5.07;3.10;;;7.60;99.90;;;;;;5008135;28;20202;-57
2022/05/30 02:42:35;;;;;;;3.95;3.28;;;7.80;99.90;;;;;;5009515;28;20187;-57
2022/05/30 02:45:00;;;;;;;3.83;3.50;;;7.60;99.90;;;;;;5009761;28;20190;-59
2022/05/30 02:47:26;;;;;;;4.10;3.80;;;7.70;99.90;;;;;;5009493;28;20278;-57
2022/05/30 02:49:51;;;;;;;3.13;2.93;;;7.50;99.90;;;;;;5010029;28;20254;-56
2022/05/30 02:52:17;;;;;;;4.10;3.80;;;7.80;99.90;;;;;;5010518;28;20660;-58
2022/05/30 02:54:43;;;;;;;6.03;4.20;;;7.50;99.90;;;;;;5008748;28;20171;-57
2022/05/30 02:57:08;;;;;;;4.60;4.20;;;7.10;99.90;;;;;;5009030;28;20191;-57
2022/05/30 02:59:34;;;;;;;3.90;3.60;;;7.60;99.90;;;;;;5008650;28;20236;-56
2022/05/30 03:02:00;;;;;;;3.63;3.33;;;7.60;99.90;;;;;;5009533;28;20179;-57
2022/05/30 03:04:25;;;;;;;4.53;3.70;;;7.50;99.90;;;;;;5009105;28;20215;-57
2022/05/30 03:06:51;;;;;;;3.87;3.47;;;7.70;99.90;;;;;;5009937;28;20182;-57
2022/05/30 03:09:18;;;;;;;3.95;3.58;;;7.40;99.90;;;;;;5008956;28;20205;-57
2022/05/30 03:11:44;;;;;;;4.13;3.55;;;7.80;99.90;;;;;;5008780;28;20219;-56
2022/05/30 03:14:10;;;;;;;4.07;3.67;;;8.10;99.90;;;;;;5006725;28;20568;-57
2022/05/30 03:16:36;;;;;;;3.88;3.45;;;7.50;99.90;;;;;;5006599;28;20442;-57
2022/05/30 03:19:02;;;;;;;3.30;3.00;;;7.70;99.90;;;;;;5009519;28;20206;-57
2022/05/30 03:21:27;;;;;;;3.43;3.13;;;7.60;99.90;;;;;;5008845;28;20442;-56
2022/05/30 03:23:53;;;;;;;3.87;3.47;;;7.50;99.90;;;;;;5008670;28;20226;-55
2022/05/30 03:26:19;;;;;;;4.60;3.87;;;7.50;99.90;;;;;;5009343;28;20707;-55
2022/05/30 03:28:45;;;;;;;4.10;3.80;;;7.50;99.90;;;;;;5012454;28;20222;-54
2022/05/30 03:31:10;;;;;;;4.50;4.13;;;7.70;99.90;;;;;;5013035;28;20207;-57
2022/05/30 03:33:37;;;;;;;4.27;3.60;;;7.60;99.90;;;;;;5013518;28;20179;-54
2022/05/30 03:36:10;;;;;;;4.60;4.20;;;7.50;99.90;;;;;;5013051;28;20262;-56
2022/05/30 03:38:36;;;;;;;4.65;4.00;;;7.50;99.90;;;;;;5011903;28;20206;-55
2022/05/30 03:41:02;;;;;;;5.73;3.90;;;7.60;99.90;;;;;;5012701;28;20179;-56
2022/05/30 03:43:27;;;;;;;3.83;3.53;;;7.80;99.90;;;;;;5013782;28;20183;-56
2022/05/30 03:45:53;;;;;;;4.77;3.47;;;7.40;99.90;;;;;;5011555;28;20183;-57
2022/05/30 03:48:21;;;;;;;3.90;3.60;;;7.50;99.90;;;;;;5012800;28;20722;-55
2022/05/30 03:50:48;;;;;;;4.25;3.85;;;7.60;99.90;;;;;;5013401;28;20469;-56
2022/05/30 03:53:14;;;;;;;3.78;3.47;;;7.40;99.90;;;;;;5012964;28;20183;-56
2022/05/30 03:55:43;;;;;;;5.18;4.28;;;7.50;99.90;;;;;;5012082;28;20285;-57
2022/05/30 03:58:10;;;;;;;4.28;3.88;;;7.40;99.90;;;;;;5011627;28;20202;-56
2022/05/30 04:00:38;;;;;;;4.40;4.00;;;7.30;99.90;;;;;;5008315;28;20241;-58
2022/05/30 04:03:04;;;;;;;3.88;3.45;;;7.40;99.90;;;;;;5007949;28;20175;-55
2022/05/30 04:05:30;;;;;;;4.43;4.00;;;7.50;99.90;;;;;;5009369;28;20206;-55
2022/05/30 04:07:57;;;;;;;4.57;3.60;;;7.30;99.90;;;;;;5009899;28;21178;-55
2022/05/30 04:10:23;;;;;;;5.05;3.50;;;7.00;99.90;;;;;;5004286;28;20202;-56
2022/05/30 04:12:49;;;;;;;6.30;3.90;;;7.70;99.90;;;;;;5011783;28;20209;-56
2022/05/30 04:15:22;;;;;;;4.07;3.77;;;7.50;99.90;;;;;;5011213;28;20713;-56
2022/05/30 04:17:49;;;;;;;5.70;4.30;;;7.30;99.90;;;;;;5008670;28;20466;-57
2022/05/30 04:20:15;;;;;;;4.68;4.28;;;7.40;99.90;;;;;;5009475;28;20202;-56
2022/05/30 04:22:40;;;;;;;5.05;4.40;;;7.50;99.90;;;;;;5010599;28;20240;-56
2022/05/30 04:25:07;;;;;;;4.17;3.87;;;7.60;99.90;;;;;;5010959;28;20199;-57
2022/05/30 04:27:32;;;;;;;4.57;3.95;;;7.20;99.90;;;;;;5007914;28;20188;-56
2022/05/30 04:29:58;;;;;;;5.63;4.07;;;7.40;99.90;;;;;;5008814;28;20210;-57
2022/05/30 04:32:24;;;;;;;3.85;3.55;;;7.50;99.90;;;;;;5008847;28;20187;-56
2022/05/30 04:34:50;;;;;;;5.15;4.35;;;7.30;99.90;;;;;;5007227;28;20625;-57
2022/05/30 04:37:16;;;;;;;5.03;4.63;;;7.60;99.90;;;;;;5009351;28;20187;-55
2022/05/30 04:39:41;;;;;;;4.27;3.90;;;7.60;99.90;;;;;;5008245;28;20294;-56
2022/05/30 04:42:08;;;;;;;4.87;4.37;;;7.60;99.90;;;;;;5010602;28;20175;-56
2022/05/30 04:44:35;;;;;;;4.50;3.58;;;7.70;99.90;;;;;;5010014;28;20305;-57
2022/05/30 04:47:00;;;;;;;4.18;3.78;;;7.60;99.90;;;;;;5010191;28;20648;-57
2022/05/30 04:49:27;;;;;;;5.00;3.80;;;7.80;99.90;;;;;;5009796;28;20293;-56
2022/05/30 04:51:53;;;;;;;5.63;4.10;;;7.90;99.90;;;;;;5011535;28;20207;-57
2022/05/30 04:54:20;;;;;;;4.28;3.88;;;8.00;99.90;;;;;;5008657;28;20234;-56
2022/05/30 04:56:46;;;;;;;4.10;3.70;;;8.30;99.90;;;;;;5009537;28;20195;-56
2022/05/30 04:59:12;;;;;;;4.00;3.70;;;8.20;99.90;;;;;;5008768;28;20226;-55
2022/05/30 05:01:39;;;;;;;4.35;3.83;;;8.20;99.90;;;;;;5009276;28;20536;-55
2022/05/30 05:04:06;;;;;;;4.20;3.80;;;8.40;99.90;;;;;;5011222;28;20175;-55
2022/05/30 05:06:33;;;;;;;4.75;3.35;;;8.70;99.90;;;;;;5009951;28;20252;-55
2022/05/30 05:09:07;;;;;;;4.55;3.60;;;8.40;99.90;;;;;;5010692;28;20234;-57
2022/05/30 05:11:35;;;;;;;5.65;3.95;;;8.60;99.90;;;;;;5009200;28;20207;-58
2022/05/30 05:14:00;;;;;;;4.30;3.92;;;8.50;99.90;;;;;;5010483;28;20195;-57
2022/05/30 05:16:30;;;;;;;4.37;4.07;;;8.60;99.90;;;;;;5008667;28;20187;-56
2022/05/30 05:18:56;;;;;;;6.32;3.90;;;8.80;99.90;;;;;;5003738;28;20567;-62
2022/05/30 05:21:31;;;;;;;6.55;4.82;;;8.80;99.90;;;;;;5010350;28;20266;-60
2022/05/30 05:23:58;;;;;;;4.85;4.43;;;9.00;99.90;;;;;;5012790;28;20194;-61
2022/05/30 05:26:24;;;;;;;5.20;4.80;;;9.30;99.90;;;;;;5017526;28;20187;-61
2022/05/30 05:28:50;;;;;;;4.88;4.47;;;9.40;99.90;;;;;;5008496;28;20302;-67
2022/05/30 05:31:27;;;;;;;5.27;4.87;;;9.30;99.90;;;;;;5008910;28;20852;-63
2022/05/30 05:33:54;;;;;;;5.88;5.28;;;9.70;99.90;;;;;;5005382;28;20298;-67
2022/05/30 05:36:22;;;;;;;4.80;4.40;;;9.70;99.90;;;;;;5007185;28;20180;-56
2022/05/30 05:38:48;;;;;;;5.55;5.10;;;9.70;99.90;;;;;;5006937;28;20203;-60
2022/05/30 05:41:13;;;;;;;4.90;4.35;;;10.10;99.90;;;;;;5008646;28;20253;-60
2022/05/30 05:43:39;;;;;;;5.70;5.00;;;10.40;99.90;;;;;;5009727;28;20648;-60
2022/05/30 05:46:04;;;;;;;6.40;5.10;;;10.40;99.90;;;;;;5006795;28;20748;-60
2022/05/30 05:48:30;;;;;;;6.93;6.30;;;10.40;99.90;;;;;;5007226;28;20204;-60
2022/05/30 05:50:55;;;;;;;7.40;5.60;;;10.80;99.90;;;;;;5025013;28;20555;-59
2022/05/30 05:53:21;;;;;;;6.37;5.67;;;10.80;99.90;;;;;;5006965;28;20176;-61
2022/05/30 05:55:46;;;;;;;6.30;5.70;;;10.80;99.90;;;;;;5008139;28;20235;-62
2022/05/30 05:58:12;;;;;;;6.60;5.90;;;11.10;99.90;;;;;;5008541;28;20207;-63
2022/05/30 06:00:38;;;;;;;8.00;6.03;;;10.80;99.90;;;;;;5007717;28;20195;-62
2022/05/30 06:03:03;;;;;;;6.27;5.67;;;11.10;99.90;;;;;;5006737;28;20179;-62
2022/05/30 06:05:30;;;;;;;7.47;5.50;;;11.20;99.90;;;;;;5010645;28;20653;-63
2022/05/30 06:07:59;;;;;;;5.85;5.45;;;11.00;99.90;;;;;;5008483;28;20879;-64
2022/05/30 06:10:25;;;;;;;6.15;5.32;;;11.00;99.90;;;;;;5002391;28;20263;-58
2022/05/30 06:12:51;;;;;;;9.45;5.72;;;11.00;99.90;;;;;;5004858;28;20531;-65
2022/05/30 06:15:18;;;;;;;6.50;5.90;;;11.00;99.90;;;;;;5007928;28;20180;-64
2022/05/30 06:17:45;;;;;;;6.90;6.20;;;11.40;99.90;;;;;;5006914;28;20188;-64
2022/05/30 06:20:14;;;;;;;5.80;5.30;;;11.50;99.90;;;;;;5011309;28;20196;-61
2022/05/30 06:22:40;;;;;;;6.70;5.95;;;11.60;99.90;;;;;;5006281;28;20654;-62
2022/05/30 06:25:06;;;;;;;6.63;6.03;;;11.60;99.90;;;;;;5008904;28;20659;-64
2022/05/30 06:27:32;;;;;;;7.10;6.18;;;11.60;99.90;;;;;;5010108;28;20189;-62
2022/05/30 06:29:58;;;;;;;6.00;5.40;;;11.80;99.90;;;;;;5008653;28;20236;-60
2022/05/30 06:32:24;;;;;;;6.33;5.73;;;11.80;99.90;;;;;;5008487;28;20845;-60
2022/05/30 06:34:49;;;;;;;6.33;5.73;;;11.90;99.90;;;;;;5008928;28;20437;-60
2022/05/30 06:37:15;;;;;;;8.73;7.93;;;12.00;99.90;;;;;;5008776;28;20472;-61
2022/05/30 06:39:41;;;;;;;7.10;6.30;;;12.10;99.90;;;;;;5007689;28;20210;-57
2022/05/30 06:42:10;;;;;;;7.57;6.03;;;12.20;99.90;;;;;;5006315;28;20186;-64
2022/05/30 06:44:37;;;;;;;8.13;6.53;;;12.40;99.20;;;;;;5004916;28;20438;-64
2022/05/30 06:47:04;;;;;;;6.20;5.60;;;12.90;98.50;;;;;;5005975;28;20187;-63
2022/05/30 06:49:30;;;;;;;6.25;5.65;;;13.30;97.10;;;;;;5009481;28;20293;-64
2022/05/30 06:51:57;;;;;;;7.40;6.72;;;13.60;96.80;;;;;;5006600;28;20222;-59
2022/05/30 06:54:23;;;;;;;7.97;6.05;;;13.20;96.30;;;;;;5024528;28;20186;-64
2022/05/30 06:59:33;;;;;;;6.38;5.78;;;13.30;96.70;;;;;;5005489;28;20213;-65
2022/05/30 07:02:00;;;;;;;5.90;5.40;;;13.50;96.10;;;;;;5004683;28;20635;-64
2022/05/30 07:04:29;;;;;;;6.78;5.35;;;14.60;95.90;;;;;;5011453;28;20198;-65
2022/05/30 07:06:54;;;;;;;5.30;4.55;;;17.20;91.80;;;;;;5012783;28;20191;-67
2022/05/30 07:09:20;;;;;;;6.37;4.77;;;19.90;81.80;;;;;;5015558;28;20221;-64
2022/05/30 07:11:46;;;;;;;5.70;5.10;;;20.50;75.10;;;;;;5011458;28;20558;-66
2022/05/30 07:14:12;;;;;;;5.17;4.73;;;20.40;74.20;;;;;;5011825;28;20183;-62
2022/05/30 07:16:39;;;;;;;5.80;5.30;;;23.80;65.40;;;;;;5011727;28;20442;-66
2022/05/30 07:19:07;;;;;;;6.03;5.43;;;25.90;58.10;;;;;;5010788;28;20470;-68
2022/05/30 07:21:33;;;;;;;6.10;4.70;;;27.80;53.50;;;;;;5013256;28;20452;-65
2022/05/30 07:23:58;;;;;;;6.23;4.83;;;29.00;49.20;;;;;;5027979;28;20443;-60
2022/05/30 07:26:24;;;;;;;4.67;4.27;;;30.20;46.30;;;;;;5011901;28;20186;-60
2022/05/30 07:28:51;;;;;;;4.10;3.80;;;31.70;42.70;;;;;;5011718;28;20287;-61
2022/05/30 07:31:20;;;;;;;5.00;4.17;;;31.80;41.40;;;;;;5008969;28;20709;-59
2022/05/30 07:33:48;;;;;;;5.60;3.80;;;31.90;40.40;;;;;;5010065;28;20903;-60
2022/05/30 07:36:25;;;;;;;7.03;3.70;;;31.90;38.70;;;;;;5011002;28;20502;-59
2022/05/30 07:38:52;;;;;;;5.80;4.60;;;31.50;37.40;;;;;;5010250;28;20470;-59
2022/05/30 07:41:18;;;;;;;6.23;4.20;;;30.90;38.00;;;;;;5011887;28;20449;-60
2022/05/30 07:43:44;;;;;;;4.50;4.10;;;29.10;41.30;;;;;;5012978;28;20432;-62
2022/05/30 07:46:12;;;;;;;5.40;3.93;;;30.10;40.30;;;;;;5005166;28;21021;-62
2022/05/30 07:48:38;;;;;;;4.43;4.10;;;30.30;37.40;;;;;;5010522;28;20552;-63
2022/05/30 07:51:05;;;;;;;5.27;4.03;;;29.90;39.50;;;;;;5011836;28;21036;-64
2022/05/30 07:53:31;;;;;;;7.40;4.77;;;30.70;39.30;;;;;;5011446;28;20965;-63
2022/05/30 07:55:58;;;;;;;4.90;4.17;;;30.10;37.40;;;;;;5010467;28;20461;-64
2022/05/30 07:58:23;;;;;;;4.83;3.87;;;29.70;39.80;;;;;;5012194;28;20493;-60
2022/05/30 08:00:52;;;;;;;3.60;3.30;;;31.20;38.30;;;;;;5011619;28;20450;-60
2022/05/30 08:03:18;;;;;;;6.77;3.70;;;32.10;36.70;;;;;;5014278;28;20185;-64
2022/05/30 08:05:47;;;;;;;4.10;2.80;;;32.70;35.40;;;;;;5010450;28;20478;-62
2022/05/30 08:08:14;;;;;;;4.27;2.60;;;31.60;34.20;;;;;;5009992;28;20521;-61
2022/05/30 08:10:40;;;;;;;3.30;2.20;;;30.60;36.80;;;;;;5009076;28;20498;-60
2022/05/30 08:13:06;;;;;;;3.63;3.10;;;31.50;35.90;;;;;;5012571;28;20527;-60
2022/05/30 08:15:31;;;;;;;3.00;2.70;;;31.10;35.50;;;;;;5009423;28;20184;-61
2022/05/30 08:17:58;;;;;;;3.80;2.70;;;31.90;35.30;;;;;;5006618;28;20256;-64
2022/05/30 08:20:27;;;;;;;3.80;2.67;;;31.90;34.30;;;;;;5009655;28;20175;-62
2022/05/30 08:22:52;;;;;;;4.00;2.60;;;29.70;35.50;;;;;;5008740;28;20452;-62
2022/05/30 08:25:19;;;;;;;3.13;2.83;;;30.70;35.50;;;;;;5011820;28;20817;-62
2022/05/30 08:27:47;;;;;;;3.73;2.83;;;29.90;35.20;;;;;;5008603;28;20184;-63
2022/05/30 08:30:17;;;;;;;3.00;2.80;;;30.70;35.60;;;;;;5010912;28;20470;-65
2022/05/30 08:32:44;;;;;;;3.27;2.70;;;31.10;34.70;;;;;;5008941;28;20786;-63
2022/05/30 08:35:13;;;;;;;2.90;2.70;;;30.50;34.90;;;;;;5010694;28;20439;-60
2022/05/30 08:37:39;;;;;;;2.87;2.60;;;30.50;35.20;;;;;;5009107;28;20816;-62
2022/05/30 08:43:13;;;;;;;5.40;2.87;;;29.60;35.30;;;;;;5003772;28;20436;-61
2022/05/30 08:45:40;;;;;;;3.40;2.40;;;30.70;34.30;;;;;;5006809;28;20465;-63
2022/05/30 08:48:12;;;;;;;2.13;1.80;;;30.10;32.90;;;;;;5012973;28;20465;-63
2022/05/30 08:51:12;;;;;;;3.20;2.30;;;29.80;32.90;;;;;;5008733;28;20473;-61
2022/05/30 08:53:57;;;;;;;2.70;2.50;;;29.60;34.30;;;;;;5004801;28;20464;-63
2022/05/30 08:56:23;;;;;;;2.70;2.50;;;30.20;33.00;;;;;;5011898;28;21105;-67
2022/05/30 08:59:08;;;;;;;2.50;2.10;;;30.00;32.40;;;;;;5011464;28;20819;-66
2022/05/30 09:02:11;;;;;;;2.33;2.13;;;30.80;32.20;;;;;;5025150;28;20443;-57
2022/05/30 09:05:08;;;;;;;2.17;1.90;;;31.20;32.20;;;;;;5004671;28;20467;-57
2022/05/30 09:07:49;;;;;;;2.80;2.60;;;31.70;30.70;;;;;;5008317;28;20440;-56
2022/05/30 09:10:30;;;;;;;3.30;2.00;;;31.70;30.80;;;;;;5005467;28;20511;-56
2022/05/30 09:13:07;;;;;;;2.33;2.13;;;31.60;30.20;;;;;;5011025;28;20491;-57
2022/05/30 09:15:43;;;;;;;2.57;2.17;;;31.00;30.00;;;;;;5009111;28;20470;-57
2022/05/30 09:18:50;;;;;;;2.13;1.90;;;29.70;30.00;;;;;;5008929;28;21029;-57
2022/05/30 09:21:17;;;;;;;3.33;2.17;;;30.60;31.70;;;;;;5006178;28;20431;-56
2022/05/30 09:23:43;;;;;;;3.27;2.97;;;31.50;31.00;;;;;;5006874;28;20458;-70
2022/05/30 09:26:16;;;;;;;4.20;2.47;;;31.60;30.30;;;;;;5011771;28;20459;-70
2022/05/30 09:28:43;;;;;;;3.60;2.27;;;32.00;30.30;;;;;;5024574;28;20541;-68
2022/05/30 09:31:17;;;;;;;2.73;1.73;;;31.40;29.10;;;;;;5008629;28;20525;-70
2022/05/30 09:33:47;;;;;;;3.87;1.90;;;30.80;29.50;;;;;;5006887;28;20446;-69
2022/05/30 09:36:20;;;;;;;2.23;1.80;;;29.80;30.60;;;;;;5009122;28;20447;-67
2022/05/30 09:38:55;;;;;;;2.53;1.80;;;30.30;30.00;;;;;;5007866;28;20473;-57
2022/05/30 09:41:24;;;;;;;1.70;1.57;;;30.90;29.30;;;;;;5008972;28;20437;-57
2022/05/30 09:44:03;;;;;;;1.20;1.10;;;29.40;30.00;;;;;;5011397;28;20462;-57
2022/05/30 09:46:37;;;;;;;2.23;1.60;;;27.50;30.50;;;;;;5005020;28;20464;-58
2022/05/30 09:49:18;;;;;;;1.70;1.40;;;27.00;31.90;;;;;;4998451;28;20459;-58
2022/05/30 09:51:51;;;;;;;1.80;1.20;;;27.40;29.90;;;;;;5009241;28;20477;-57
2022/05/30 09:54:23;;;;;;;1.80;1.40;;;28.60;29.80;;;;;;5008458;28;20670;-57
2022/05/30 09:56:50;;;;;;;1.57;1.47;;;29.20;29.30;;;;;;5002529;28;20464;-57
2022/05/30 09:59:32;;;;;;;1.23;1.13;;;29.30;28.70;;;;;;5006608;28;20465;-58
2022/05/30 10:01:58;;;;;;;4.60;1.73;;;30.40;27.80;;;;;;5010061;28;20841;-58
2022/05/30 10:04:39;;;;;;;1.70;1.60;;;30.30;28.10;;;;;;5005984;28;20595;-57
2022/05/30 10:07:14;;;;;;;2.10;1.60;;;29.20;29.10;;;;;;5001163;28;20928;-59
2022/05/30 10:10:02;;;;;;;2.80;1.80;;;28.50;30.00;;;;;;5006566;28;20475;-57
2022/05/30 10:12:42;;;;;;;1.43;1.33;;;30.00;29.10;;;;;;5005247;28;20444;-58
2022/05/30 10:15:24;;;;;;;3.13;1.83;;;31.00;28.60;;;;;;5000904;28;20785;-57
2022/05/30 10:17:51;;;;;;;1.60;1.50;;;31.70;27.70;;;;;;5001463;28;20896;-57
2022/05/30 10:20:36;;;;;;;2.63;2.07;;;32.40;27.40;;;;;;5010114;28;20439;-57
2022/05/30 10:30:05;;;;;;;1.70;1.60;;;30.10;27.30;;;;;;5021665;28;20561;-58
2022/05/30 10:33:09;;;;;;;1.63;1.40;;;29.40;28.00;;;;;;5006860;28;20439;-58
2022/05/30 10:35:53;;;;;;;1.80;1.70;;;29.20;28.20;;;;;;5005386;28;20532;-57
2022/05/30 10:38:47;;;;;;;1.43;1.33;;;29.10;27.90;;;;;;5002080;28;20443;-58
2022/05/30 10:41:24;;;;;;;4.13;1.70;;;28.60;28.60;;;;;;5009874;28;20485;-57
2022/05/30 10:44:06;;;;;;;1.60;1.50;;;28.30;30.00;;;;;;5009817;28;20438;-57
2022/05/30 10:46:44;;;;;;;2.90;1.63;;;29.40;28.30;;;;;;5008793;28;20525;-56
2022/05/30 10:49:16;;;;;;;1.77;1.57;;;29.60;27.90;;;;;;5004515;28;20946;-57
2022/05/30 10:51:59;;;;;;;8.80;4.33;;;30.60;27.60;;;;;;5007927;28;20926;-57
2022/05/30 10:54:37;;;;;;;1.63;1.47;;;31.60;27.30;;;;;;5011366;28;20718;-64
2022/05/30 10:57:33;;;;;;;2.30;2.00;;;31.20;26.00;;;;;;5009119;28;20452;-65
2022/05/30 11:00:12;;;;;;;2.30;1.80;;;31.80;26.10;;;;;;5004841;28;21110;-64
2022/05/30 11:02:52;;;;;;;2.13;1.60;;;30.70;26.60;;;;;;5023724;28;20868;-66
2022/05/30 11:05:23;;;;;;;3.10;2.27;;;29.20;27.00;;;;;;5006689;28;21089;-66
2022/05/30 11:08:12;;;;;;;3.00;2.23;;;30.40;26.80;;;;;;5007987;28;20519;-69
2022/05/30 11:10:50;;;;;;;2.50;2.03;;;30.40;26.30;;;;;;5006852;28;20927;-67
2022/05/30 11:13:47;;;;;;;2.00;1.73;;;30.40;25.90;;;;;;5006524;28;20913;-71
2022/05/30 11:16:44;;;;;;;2.20;1.13;;;28.50;26.90;;;;;;5015577;28;20468;-67
2022/05/30 11:19:24;;;;;;;1.50;1.40;;;28.20;27.70;;;;;;5003536;28;20454;-68
2022/05/30 11:22:09;;;;;;;3.50;1.63;;;28.70;27.80;;;;;;5023748;28;20459;-68
2022/05/30 11:24:37;;;;;;;3.13;1.67;;;29.00;28.00;;;;;;5007041;28;20454;-57
2022/05/30 11:27:41;;;;;;;1.97;1.70;;;28.30;28.30;;;;;;5007090;28;20441;-58
2022/05/30 11:30:10;;;;;;;1.60;1.50;;;27.50;28.90;;;;;;5001116;28;22592;-56
2022/05/30 11:32:50;;;;;;;2.07;1.60;;;26.60;29.30;;;;;;5005081;28;20448;-58
2022/05/30 11:35:36;;;;;;;1.60;1.40;;;26.30;30.00;;;;;;5004055;28;20435;-57
2022/05/30 11:38:24;;;;;;;1.70;1.53;;;26.00;30.00;;;;;;5002085;28;20882;-57
2022/05/30 11:41:18;;;;;;;2.37;2.17;;;25.40;30.00;;;;;;5007588;28;20992;-67
2022/05/30 11:44:22;;;;;;;1.63;1.53;;;24.20;31.40;;;;;;5006970;28;20860;-65
2022/05/30 11:46:57;;;;;;;2.50;2.20;;;23.30;32.80;;;;;;5006250;28;20499;-64
2022/05/30 11:49:34;;;;;;;2.15;1.58;;;22.70;33.80;;;;;;5010760;28;20503;-65
2022/05/30 11:52:12;;;;;;;3.47;2.30;;;22.00;33.90;;;;;;5010242;28;20328;-62
2022/05/30 11:55:15;;;;;;;3.45;2.00;;;21.60;34.80;;;;;;5010731;28;20985;-63
2022/05/30 11:57:46;;;;;;;1.65;1.55;;;21.10;35.80;;;;;;5008829;28;20315;-62
2022/05/30 12:00:19;;;;;;;1.83;1.60;;;20.90;36.50;;;;;;5009432;28;20273;-64
2022/05/30 12:02:48;;;;;;;3.13;2.67;;;20.50;36.50;;;;;;5012873;28;20217;-61
2022/05/30 12:05:34;;;;;;;1.70;1.60;;;20.30;36.60;;;;;;5011852;28;20179;-60
2022/05/30 12:08:09;;;;;;;3.45;1.60;;;20.10;37.40;;;;;;5008263;28;20231;-62
2022/05/30 12:10:44;;;;;;;2.10;1.52;;;20.00;37.00;;;;;;5004652;28;20245;-62
2022/05/30 12:13:26;;;;;;;1.40;1.30;;;20.00;37.30;;;;;;5010493;28;20179;-62
2022/05/30 12:16:14;;;;;;;2.03;1.42;;;20.00;37.20;;;;;;5007163;28;20198;-62
2022/05/30 12:23:48;;;;;;;1.77;1.60;;;19.80;37.00;;;;;;5048712;28;20255;-57
2022/05/30 12:25:34;;;;;;;2.40;2.20;;;19.70;37.50;;;;;;5046745;28;20690;-62
2022/05/30 12:28:01;;;;;;;3.50;2.75;;;19.60;37.50;;;;;;5010465;28;20245;-58
2022/05/30 12:30:33;;;;;;;2.00;1.73;;;19.60;38.00;;;;;;5006992;28;20242;-58
2022/05/30 12:32:59;;;;;;;5.25;1.80;;;19.70;37.90;;;;;;5010752;28;20772;-64
2022/05/30 12:35:28;;;;;;;3.25;1.70;;;19.50;38.00;;;;;;5008079;28;20218;-65
2022/05/30 12:38:13;;;;;;;1.80;1.70;;;19.60;38.80;;;;;;5009820;28;20174;-64
2022/05/30 12:40:43;;;;;;;4.55;2.30;;;19.90;38.70;;;;;;5011231;28;20669;-65
2022/05/30 12:43:16;;;;;;;2.10;1.80;;;19.90;38.50;;;;;;5010059;28;20580;-60
2022/05/30 12:45:57;;;;;;;3.17;1.58;;;20.10;38.00;;;;;;5010978;28;20189;-62
2022/05/30 12:48:25;;;;;;;1.70;1.60;;;20.40;37.50;;;;;;5007479;28;20245;-65
2022/05/30 12:50:51;;;;;;;2.35;1.75;;;20.50;37.50;;;;;;5008211;28;20702;-64
2022/05/30 12:53:21;;;;;;;3.70;3.40;;;20.70;38.00;;;;;;5010235;28;20183;-64
2022/05/30 12:55:52;;;;;;;2.97;1.90;;;20.70;37.40;;;;;;5010177;28;20244;-60
2022/05/30 12:58:41;;;;;;;1.80;1.70;;;20.60;36.50;;;;;;5010715;28;20238;-62
2022/05/30 13:01:24;;;;;;;2.10;1.70;;;20.70;36.30;;;;;;5005646;28;20194;-64
2022/05/30 13:04:07;;;;;;;2.15;1.63;;;20.80;36.10;;;;;;5010425;28;20566;-63
2022/05/30 13:07:05;;;;;;;1.75;1.65;;;20.80;37.30;;;;;;5008263;28;20214;-61
2022/05/30 13:09:36;;;;;;;2.95;1.75;;;20.80;37.00;;;;;;5007664;28;20555;-60
2022/05/30 13:12:10;;;;;;;2.10;1.50;;;20.80;36.50;;;;;;5009834;28;20257;-63
2022/05/30 13:15:00;;;;;;;1.58;1.48;;;20.80;36.90;;;;;;5004988;28;20269;-66
2022/05/30 13:17:59;;;;;;;1.92;1.83;;;21.00;37.10;;;;;;5006812;28;20593;-61
2022/05/30 13:20:38;;;;;;;2.00;1.90;;;21.00;37.10;;;;;;5005725;28;20183;-61
2022/05/30 13:23:06;;;;;;;1.92;1.52;;;21.00;36.10;;;;;;5010082;28;20205;-61
2022/05/30 13:25:39;;;;;;;2.88;2.63;;;20.90;36.10;;;;;;5010415;28;20183;-61
2022/05/30 13:28:27;;;;;;;2.65;1.80;;;20.70;36.70;;;;;;5009341;28;20198;-61
2022/05/30 13:30:55;;;;;;;1.85;1.75;;;20.60;37.30;;;;;;5007154;28;20218;-61
2022/05/30 13:33:32;;;;;;;3.72;1.80;;;20.60;37.50;;;;;;5009825;28;20183;-60